createdAt,value
2023-10-20T00:00:31.976Z,963.3
2023-10-20T00:01:33.775Z,963.35
2023-10-20T00:02:35.587Z,963.27
2023-10-20T00:03:37.374Z,963.27
2023-10-20T00:04:38.885Z,963.21
2023-10-20T00:05:40.640Z,963.21
2023-10-20T00:06:42.370Z,963.23
2023-10-20T00:07:44.121Z,963.25
2023-10-20T00:08:46.127Z,963.25
2023-10-20T00:09:47.599Z,963.27
2023-10-20T00:10:49.336Z,963.26
2023-10-20T00:11:51.036Z,963.23
2023-10-20T00:12:52.776Z,963.23
2023-10-20T00:13:54.693Z,963.19
2023-10-20T00:14:56.270Z,963.16
2023-10-20T00:15:58.227Z,963.09
2023-10-20T00:16:59.763Z,963.04
2023-10-20T00:18:01.533Z,962.97
2023-10-20T00:19:03.179Z,962.88
2023-10-20T00:20:04.950Z,962.88
2023-10-20T00:21:06.644Z,962.9
2023-10-20T00:22:08.382Z,962.9
2023-10-20T00:23:10.175Z,962.88
2023-10-20T00:24:11.840Z,962.87
2023-10-20T00:25:13.642Z,962.81
2023-10-20T00:26:15.336Z,962.8
2023-10-20T00:27:17.065Z,962.84
2023-10-20T00:28:18.791Z,962.88
2023-10-20T00:29:20.564Z,962.9
2023-10-20T00:30:22.252Z,962.88
2023-10-20T00:31:24.020Z,962.86
2023-10-20T00:32:25.785Z,962.9
2023-10-20T00:33:27.442Z,962.86
2023-10-20T00:34:29.177Z,962.79
2023-10-20T00:35:30.966Z,962.77
2023-10-20T00:36:32.650Z,962.74
2023-10-20T00:37:34.371Z,962.71
2023-10-20T00:38:36.156Z,962.71
2023-10-20T00:39:37.846Z,962.74
2023-10-20T00:40:39.580Z,962.7
2023-10-20T00:41:41.433Z,962.73
2023-10-20T00:42:43.056Z,962.69
2023-10-20T00:43:44.779Z,962.7
2023-10-20T00:44:46.541Z,962.72
2023-10-20T00:45:48.291Z,962.7
2023-10-20T00:46:50.007Z,962.75
2023-10-20T00:47:51.837Z,962.76
2023-10-20T00:48:53.613Z,962.74
2023-10-20T00:49:55.247Z,962.76
2023-10-20T00:50:56.916Z,962.76
2023-10-20T00:51:58.628Z,962.74
2023-10-20T00:53:00.523Z,962.68
2023-10-20T00:54:02.121Z,962.7
2023-10-20T00:55:03.837Z,962.68
2023-10-20T00:56:05.639Z,962.65
2023-10-20T00:57:07.305Z,962.62
2023-10-20T00:58:09.038Z,962.6
2023-10-20T00:59:10.893Z,962.59
2023-10-20T01:00:12.515Z,962.56
2023-10-20T01:01:14.315Z,962.52
2023-10-20T01:02:16.050Z,962.5
2023-10-20T01:03:17.822Z,962.5
2023-10-20T01:04:19.454Z,962.5
2023-10-20T01:05:21.209Z,962.49
2023-10-20T01:06:22.893Z,962.56
2023-10-20T01:07:24.644Z,962.56
2023-10-20T01:08:26.528Z,962.51
2023-10-20T01:09:28.296Z,962.44
2023-10-20T01:10:29.897Z,962.45
2023-10-20T01:11:31.568Z,962.45
2023-10-20T01:12:33.310Z,962.44
2023-10-20T01:13:35.044Z,962.47
2023-10-20T01:14:36.857Z,962.47
2023-10-20T01:15:38.681Z,962.55
2023-10-20T01:16:40.324Z,962.55
2023-10-20T01:17:42.030Z,962.53
2023-10-20T01:18:43.702Z,962.52
2023-10-20T01:19:45.503Z,962.47
2023-10-20T01:20:47.313Z,962.38
2023-10-20T01:21:48.887Z,962.34
2023-10-20T01:22:50.643Z,962.29
2023-10-20T01:23:52.385Z,962.21
2023-10-20T01:24:54.119Z,962.23
2023-10-20T01:25:56.121Z,962.16
2023-10-20T01:26:57.602Z,962.16
2023-10-20T01:27:59.471Z,962.1
2023-10-20T01:29:01.058Z,962.13
2023-10-20T01:30:02.760Z,962.05
2023-10-20T01:31:04.493Z,962.06
2023-10-20T01:32:06.257Z,962.05
2023-10-20T01:33:08.051Z,962.08
2023-10-20T01:34:09.717Z,962.05
2023-10-20T01:35:11.687Z,962.04
2023-10-20T01:36:13.165Z,962
2023-10-20T01:37:14.919Z,961.98
2023-10-20T01:38:16.721Z,962
2023-10-20T01:39:18.373Z,962
2023-10-20T01:40:22.105Z,962.02
2023-10-20T01:41:27.045Z,962.03
2023-10-20T01:42:28.726Z,962
2023-10-20T01:43:30.450Z,962.03
2023-10-20T01:44:32.747Z,961.97
2023-10-20T01:45:33.958Z,961.95
2023-10-20T01:46:35.683Z,961.88
2023-10-20T01:47:37.475Z,961.83
2023-10-20T01:48:39.107Z,961.79
2023-10-20T01:49:40.840Z,961.76
2023-10-20T01:50:42.653Z,961.72
2023-10-20T01:51:44.297Z,961.72
2023-10-20T01:52:46.043Z,961.7
2023-10-20T01:53:47.932Z,961.66
2023-10-20T01:54:49.536Z,961.58
2023-10-20T01:55:51.261Z,961.55
2023-10-20T01:56:52.963Z,961.56
2023-10-20T01:57:54.752Z,961.56
2023-10-20T01:58:56.442Z,961.5
2023-10-20T01:59:58.173Z,961.44
2023-10-20T02:00:59.946Z,961.41
2023-10-20T02:02:01.768Z,961.4
2023-10-20T02:03:03.541Z,961.35
2023-10-20T02:04:05.143Z,961.39
2023-10-20T02:05:07.023Z,961.29
2023-10-20T02:06:08.575Z,961.24
2023-10-20T02:07:10.317Z,961.25
2023-10-20T02:08:12.100Z,961.27
2023-10-20T02:09:13.772Z,961.23
2023-10-20T02:10:15.532Z,961.19
2023-10-20T02:11:17.281Z,961.22
2023-10-20T02:12:18.974Z,961.2
2023-10-20T02:13:20.706Z,961.07
2023-10-20T02:14:22.510Z,961.11
2023-10-20T02:15:24.252Z,961.02
2023-10-20T02:16:25.943Z,961.01
2023-10-20T02:17:27.800Z,960.95
2023-10-20T02:18:29.562Z,960.93
2023-10-20T02:19:31.094Z,960.88
2023-10-20T02:20:32.900Z,960.82
2023-10-20T02:21:34.611Z,960.78
2023-10-20T02:22:36.320Z,960.71
2023-10-20T02:23:38.067Z,960.71
2023-10-20T02:24:39.765Z,960.69
2023-10-20T02:25:41.521Z,960.66
2023-10-20T02:26:43.241Z,960.71
2023-10-20T02:27:44.980Z,960.74
2023-10-20T02:28:46.695Z,960.71
2023-10-20T02:29:48.449Z,960.72
2023-10-20T02:30:50.241Z,960.74
2023-10-20T02:31:51.908Z,960.75
2023-10-20T02:32:53.708Z,960.81
2023-10-20T02:33:55.379Z,960.76
2023-10-20T02:34:57.124Z,960.77
2023-10-20T02:35:58.842Z,960.74
2023-10-20T02:37:00.566Z,960.65
2023-10-20T02:38:02.327Z,960.6
2023-10-20T02:39:04.040Z,960.55
2023-10-20T02:40:05.820Z,960.53
2023-10-20T02:41:07.531Z,960.5
2023-10-20T02:42:09.234Z,960.51
2023-10-20T02:43:10.962Z,960.54
2023-10-20T02:44:12.774Z,960.56
2023-10-20T02:45:14.439Z,960.56
2023-10-20T02:46:16.222Z,960.56
2023-10-20T02:47:17.955Z,960.49
2023-10-20T02:48:19.705Z,960.51
2023-10-20T02:49:21.374Z,960.46
2023-10-20T02:50:23.145Z,960.42
2023-10-20T02:51:24.964Z,960.37
2023-10-20T02:52:26.564Z,960.32
2023-10-20T02:53:28.385Z,960.23
2023-10-20T02:54:30.108Z,960.31
2023-10-20T02:55:31.758Z,960.31
2023-10-20T02:56:33.559Z,960.32
2023-10-20T02:57:35.273Z,960.37
2023-10-20T02:58:36.990Z,960.35
2023-10-20T02:59:38.770Z,960.22
2023-10-20T03:00:40.684Z,960.16
2023-10-20T03:01:42.466Z,960.14
2023-10-20T03:02:44.159Z,960.17
2023-10-20T03:03:46.001Z,960.14
2023-10-20T03:04:47.418Z,960.23
2023-10-20T03:05:49.375Z,960.21
2023-10-20T03:06:50.991Z,960.18
2023-10-20T03:07:52.610Z,960.08
2023-10-20T03:08:54.290Z,960.02
2023-10-20T03:09:56.031Z,959.96
2023-10-20T03:10:57.762Z,959.88
2023-10-20T03:11:59.501Z,959.88
2023-10-20T03:13:01.241Z,959.87
2023-10-20T03:14:02.993Z,959.87
2023-10-20T03:15:04.697Z,959.83
2023-10-20T03:16:06.434Z,959.8
2023-10-20T03:17:08.216Z,959.7
2023-10-20T03:18:09.966Z,959.74
2023-10-20T03:19:11.640Z,959.76
2023-10-20T03:20:13.387Z,959.76
2023-10-20T03:21:15.092Z,959.75
2023-10-20T03:22:16.814Z,959.64
2023-10-20T03:23:18.616Z,959.61
2023-10-20T03:24:20.307Z,959.54
2023-10-20T03:25:22.027Z,959.49
2023-10-20T03:26:23.943Z,959.46
2023-10-20T03:27:25.609Z,959.53
2023-10-20T03:28:27.240Z,959.55
2023-10-20T03:29:28.990Z,959.55
2023-10-20T03:30:30.684Z,959.56
2023-10-20T03:31:32.425Z,959.53
2023-10-20T03:32:34.195Z,959.46
2023-10-20T03:33:35.900Z,959.34
2023-10-20T03:34:37.620Z,959.37
2023-10-20T03:35:39.414Z,959.34
2023-10-20T03:36:41.101Z,959.34
2023-10-20T03:37:42.804Z,959.3
2023-10-20T03:38:44.590Z,959.27
2023-10-20T03:39:46.351Z,959.28
2023-10-20T03:40:48.011Z,959.27
2023-10-20T03:41:49.769Z,959.2
2023-10-20T03:42:51.466Z,959.15
2023-10-20T03:43:53.218Z,959.19
2023-10-20T03:44:54.946Z,959.13
2023-10-20T03:45:56.737Z,959.1
2023-10-20T03:46:58.432Z,959.09
2023-10-20T03:48:00.289Z,959.06
2023-10-20T03:49:01.880Z,959.04
2023-10-20T03:50:03.670Z,959.02
2023-10-20T03:51:05.784Z,959.1
2023-10-20T03:52:07.279Z,959.11
2023-10-20T03:53:08.829Z,959.05
2023-10-20T03:54:10.563Z,959.02
2023-10-20T03:55:12.284Z,958.94
2023-10-20T03:56:14.074Z,958.86
2023-10-20T03:57:15.734Z,958.8
2023-10-20T03:58:17.456Z,958.76
2023-10-20T03:59:19.275Z,958.73
2023-10-20T04:00:20.939Z,958.61
2023-10-20T04:01:22.880Z,958.54
2023-10-20T04:02:24.481Z,958.57
2023-10-20T04:03:27.327Z,958.52
2023-10-20T04:04:27.928Z,958.5
2023-10-20T04:05:29.616Z,958.5
2023-10-20T04:06:31.328Z,958.49
2023-10-20T04:07:33.077Z,958.49
2023-10-20T04:08:34.841Z,958.44
2023-10-20T04:09:36.538Z,958.36
2023-10-20T04:10:38.281Z,958.35
2023-10-20T04:11:40.138Z,958.27
2023-10-20T04:12:41.733Z,958.27
2023-10-20T04:13:43.555Z,958.24
2023-10-20T04:14:45.238Z,958.23
2023-10-20T04:15:46.939Z,958.12
2023-10-20T04:16:48.724Z,958.11
2023-10-20T04:17:50.527Z,958.09
2023-10-20T04:18:52.139Z,958.12
2023-10-20T04:19:53.867Z,958.19
2023-10-20T04:20:55.607Z,958.17
2023-10-20T04:21:57.430Z,958.1
2023-10-20T04:22:59.059Z,958.07
2023-10-20T04:24:00.820Z,958.08
2023-10-20T04:25:02.572Z,957.96
2023-10-20T04:26:04.292Z,957.96
2023-10-20T04:27:07.275Z,958
2023-10-20T04:28:07.763Z,957.95
2023-10-20T04:29:09.617Z,957.96
2023-10-20T04:30:11.209Z,957.92
2023-10-20T04:31:12.923Z,957.94
2023-10-20T04:32:14.791Z,957.86
2023-10-20T04:33:16.474Z,957.81
2023-10-20T04:34:18.307Z,957.73
2023-10-20T04:35:21.248Z,957.59
2023-10-20T04:36:21.595Z,957.57
2023-10-20T04:37:23.312Z,957.52
2023-10-20T04:38:25.083Z,957.47
2023-10-20T04:39:26.784Z,957.49
2023-10-20T04:40:28.567Z,957.42
2023-10-20T04:41:30.285Z,957.39
2023-10-20T04:42:32.153Z,957.44
2023-10-20T04:43:33.723Z,957.44
2023-10-20T04:44:35.687Z,957.45
2023-10-20T04:45:37.177Z,957.46
2023-10-20T04:46:38.908Z,957.49
2023-10-20T04:47:40.875Z,957.48
2023-10-20T04:48:42.422Z,957.56
2023-10-20T04:49:44.118Z,957.58
2023-10-20T04:50:45.971Z,957.54
2023-10-20T04:51:47.592Z,957.53
2023-10-20T04:52:49.322Z,957.5
2023-10-20T04:53:51.038Z,957.46
2023-10-20T04:54:53.097Z,957.42
2023-10-20T04:55:54.621Z,957.37
2023-10-20T04:56:56.251Z,957.37
2023-10-20T04:57:58.000Z,957.29
2023-10-20T04:58:59.718Z,957.26
2023-10-20T05:00:01.462Z,957.19
2023-10-20T05:01:03.197Z,957.1
2023-10-20T05:02:04.971Z,957.07
2023-10-20T05:03:06.700Z,956.98
2023-10-20T05:04:08.429Z,956.94
2023-10-20T05:05:10.157Z,956.89
2023-10-20T05:06:11.853Z,956.85
2023-10-20T05:07:13.602Z,956.74
2023-10-20T05:08:15.336Z,956.77
2023-10-20T05:09:17.422Z,956.75
2023-10-20T05:10:18.773Z,956.74
2023-10-20T05:11:20.661Z,956.72
2023-10-20T05:12:22.239Z,956.69
2023-10-20T05:13:23.980Z,956.76
2023-10-20T05:14:25.785Z,956.75
2023-10-20T05:15:27.482Z,956.69
2023-10-20T05:16:29.174Z,956.64
2023-10-20T05:17:31.024Z,956.55
2023-10-20T05:18:32.694Z,956.44
2023-10-20T05:19:34.375Z,956.33
2023-10-20T05:20:36.137Z,956.33
2023-10-20T05:21:37.824Z,956.33
2023-10-20T05:22:39.621Z,956.31
2023-10-20T05:23:41.548Z,956.27
2023-10-20T05:24:43.053Z,956.22
2023-10-20T05:25:44.772Z,956.2
2023-10-20T05:26:46.525Z,956.14
2023-10-20T05:27:48.209Z,956.04
2023-10-20T05:28:49.970Z,955.89
2023-10-20T05:29:51.871Z,955.79
2023-10-20T05:30:53.433Z,955.88
2023-10-20T05:31:55.174Z,955.98
2023-10-20T05:32:57.016Z,956.04
2023-10-20T05:33:58.638Z,956
2023-10-20T05:35:00.395Z,956.02
2023-10-20T05:36:02.103Z,956.1
2023-10-20T05:37:03.877Z,956.08
2023-10-20T05:38:05.572Z,956.06
2023-10-20T05:39:07.302Z,956.05
2023-10-20T05:40:09.030Z,956.01
2023-10-20T05:41:10.843Z,955.99
2023-10-20T05:42:12.494Z,956
2023-10-20T05:43:14.230Z,955.95
2023-10-20T05:44:16.294Z,955.99
2023-10-20T05:45:17.692Z,955.98
2023-10-20T05:46:19.604Z,956.03
2023-10-20T05:47:21.198Z,956.06
2023-10-20T05:48:22.970Z,956.04
2023-10-20T05:49:24.692Z,956.08
2023-10-20T05:50:26.493Z,956.04
2023-10-20T05:51:28.086Z,956.06
2023-10-20T05:52:29.837Z,956.06
2023-10-20T05:53:31.730Z,956.07
2023-10-20T05:54:33.467Z,956.15
2023-10-20T05:55:35.081Z,956.05
2023-10-20T05:56:36.804Z,956.06
2023-10-20T05:57:38.506Z,956.14
2023-10-20T05:58:40.251Z,956.19
2023-10-20T05:59:42.207Z,956.2
2023-10-20T06:01:01.641Z,956.18
2023-10-20T06:01:45.524Z,956.18
2023-10-20T06:02:47.342Z,956.17
2023-10-20T06:03:49.094Z,956.16
2023-10-20T06:04:50.649Z,956.13
2023-10-20T06:05:52.447Z,956.09
2023-10-20T06:06:54.115Z,956.08
2023-10-20T06:07:55.851Z,956.03
2023-10-20T06:08:57.588Z,955.98
2023-10-20T06:09:59.282Z,955.91
2023-10-20T06:11:01.009Z,955.92
2023-10-20T06:12:02.764Z,955.9
2023-10-20T06:13:04.517Z,955.9
2023-10-20T06:14:06.320Z,955.92
2023-10-20T06:15:07.968Z,955.94
2023-10-20T06:16:10.265Z,955.94
2023-10-20T06:17:12.768Z,955.96
2023-10-20T06:18:25.185Z,955.91
2023-10-20T06:19:14.972Z,955.87
2023-10-20T06:20:16.708Z,955.88
2023-10-20T06:21:18.561Z,955.81
2023-10-20T06:22:20.110Z,955.8
2023-10-20T06:23:21.887Z,955.78
2023-10-20T06:24:23.580Z,955.73
2023-10-20T06:25:25.321Z,955.72
2023-10-20T06:26:27.147Z,955.61
2023-10-20T06:27:28.772Z,955.6
2023-10-20T06:28:30.522Z,955.54
2023-10-20T06:29:32.733Z,955.4
2023-10-20T06:30:33.977Z,955.42
2023-10-20T06:31:35.742Z,955.39
2023-10-20T06:32:37.513Z,955.34
2023-10-20T06:33:39.244Z,955.29
2023-10-20T06:34:40.923Z,955.24
2023-10-20T06:35:42.737Z,955.16
2023-10-20T06:36:44.371Z,955.06
2023-10-20T06:37:46.123Z,954.99
2023-10-20T06:38:47.849Z,954.92
2023-10-20T06:39:49.566Z,954.87
2023-10-20T06:40:51.515Z,954.89
2023-10-20T06:41:53.043Z,954.86
2023-10-20T06:42:54.779Z,954.81
2023-10-20T06:43:56.509Z,954.77
2023-10-20T06:44:58.236Z,954.75
2023-10-20T06:45:59.991Z,954.68
2023-10-20T06:47:01.705Z,954.63
2023-10-20T06:48:03.551Z,954.59
2023-10-20T06:49:05.179Z,954.54
2023-10-20T06:50:07.078Z,954.57
2023-10-20T06:51:08.629Z,954.58
2023-10-20T06:52:10.370Z,954.58
2023-10-20T06:53:12.122Z,954.69
2023-10-20T06:54:13.866Z,954.68
2023-10-20T06:55:44.852Z,954.63
2023-10-20T06:56:20.035Z,954.59
2023-10-20T06:57:19.133Z,954.66
2023-10-20T06:58:20.817Z,954.65
2023-10-20T06:59:22.488Z,954.62
2023-10-20T07:00:24.223Z,954.62
2023-10-20T07:01:25.996Z,954.61
2023-10-20T07:02:27.767Z,954.61
2023-10-20T07:03:29.517Z,954.67
2023-10-20T07:04:31.206Z,954.67
2023-10-20T07:05:32.908Z,954.72
2023-10-20T07:06:34.631Z,954.81
2023-10-20T07:07:36.375Z,954.83
2023-10-20T07:08:38.241Z,954.81
2023-10-20T07:09:39.854Z,954.86
2023-10-20T07:10:41.557Z,954.9
2023-10-20T07:11:43.513Z,954.98
2023-10-20T07:12:45.077Z,954.99
2023-10-20T07:13:46.764Z,955.06
2023-10-20T07:14:48.525Z,955.04
2023-10-20T07:15:50.259Z,954.94
2023-10-20T07:16:51.960Z,954.93
2023-10-20T07:17:53.830Z,954.86
2023-10-20T07:18:55.431Z,954.79
2023-10-20T07:19:57.143Z,954.75
2023-10-20T07:20:59.245Z,954.75
2023-10-20T07:22:00.621Z,954.7
2023-10-20T07:23:02.424Z,954.62
2023-10-20T07:24:04.121Z,954.66
2023-10-20T07:25:05.810Z,954.63
2023-10-20T07:26:07.544Z,954.66
2023-10-20T07:27:09.269Z,954.64
2023-10-20T07:28:11.051Z,954.59
2023-10-20T07:29:12.846Z,954.62
2023-10-20T07:30:14.548Z,954.62
2023-10-20T07:31:16.300Z,954.54
2023-10-20T07:32:18.023Z,954.6
2023-10-20T07:33:19.768Z,954.53
2023-10-20T07:34:21.414Z,954.52
2023-10-20T07:35:23.347Z,954.51
2023-10-20T07:36:24.960Z,954.43
2023-10-20T07:37:26.626Z,954.46
2023-10-20T07:38:28.381Z,954.44
2023-10-20T07:39:30.086Z,954.46
2023-10-20T07:40:31.817Z,954.42
2023-10-20T07:41:33.632Z,954.47
2023-10-20T07:42:35.286Z,954.45
2023-10-20T07:43:37.019Z,954.42
2023-10-20T07:44:38.804Z,954.42
2023-10-20T07:45:40.560Z,954.38
2023-10-20T07:46:42.259Z,954.38
2023-10-20T07:47:44.084Z,954.35
2023-10-20T07:48:45.845Z,954.32
2023-10-20T07:49:47.433Z,954.37
2023-10-20T07:50:49.249Z,954.41
2023-10-20T07:51:50.894Z,954.27
2023-10-20T07:52:52.617Z,954.38
2023-10-20T07:53:54.369Z,954.39
2023-10-20T07:54:56.105Z,954.33
2023-10-20T07:55:57.805Z,954.35
2023-10-20T07:56:59.548Z,954.44
2023-10-20T07:58:01.301Z,954.44
2023-10-20T07:59:03.036Z,954.43
2023-10-20T08:00:04.923Z,954.46
2023-10-20T08:01:06.493Z,954.47
2023-10-20T08:02:08.238Z,954.43
2023-10-20T08:03:10.346Z,954.3
2023-10-20T08:04:11.964Z,954.29
2023-10-20T08:05:13.650Z,954.29
2023-10-20T08:06:15.520Z,954.27
2023-10-20T08:07:17.286Z,954.26
2023-10-20T08:08:18.738Z,954.26
2023-10-20T08:09:20.358Z,954.28
2023-10-20T08:10:22.068Z,954.25
2023-10-20T08:11:23.880Z,954.26
2023-10-20T08:12:25.562Z,954.31
2023-10-20T08:13:27.283Z,954.32
2023-10-20T08:14:29.120Z,954.26
2023-10-20T08:15:30.920Z,954.39
2023-10-20T08:16:32.538Z,954.38
2023-10-20T08:17:34.389Z,954.34
2023-10-20T08:18:36.030Z,954.47
2023-10-20T08:19:37.705Z,954.49
2023-10-20T08:20:39.486Z,954.56
2023-10-20T08:21:41.145Z,954.58
2023-10-20T08:22:42.868Z,954.6
2023-10-20T08:23:44.844Z,954.64
2023-10-20T08:24:46.350Z,954.7
2023-10-20T08:25:48.090Z,954.79
2023-10-20T08:26:49.882Z,954.84
2023-10-20T08:27:51.540Z,954.94
2023-10-20T08:28:53.285Z,954.99
2023-10-20T08:29:55.051Z,955.04
2023-10-20T08:30:56.762Z,955.08
2023-10-20T08:31:58.469Z,955.13
2023-10-20T08:33:00.414Z,955.14
2023-10-20T08:35:03.688Z,955.11
2023-10-20T08:36:05.446Z,955.15
2023-10-20T08:37:07.160Z,955.2
2023-10-20T08:38:08.958Z,955.23
2023-10-20T08:39:10.600Z,955.19
2023-10-20T08:40:12.338Z,955.19
2023-10-20T08:41:14.153Z,955.24
2023-10-20T08:42:15.823Z,955.24
2023-10-20T08:43:17.550Z,955.22
2023-10-20T08:44:19.335Z,955.23
2023-10-20T08:45:21.016Z,955.18
2023-10-20T08:46:22.840Z,955.14
2023-10-20T08:47:26.607Z,955.15
2023-10-20T08:48:26.377Z,955.12
2023-10-20T08:49:27.943Z,955.14
2023-10-20T08:50:29.712Z,955.14
2023-10-20T08:51:31.420Z,955.11
2023-10-20T08:52:33.175Z,955.12
2023-10-20T08:53:34.953Z,955.08
2023-10-20T08:54:36.603Z,955.11
2023-10-20T08:55:38.683Z,955.11
2023-10-20T08:56:40.122Z,955.13
2023-10-20T08:57:41.811Z,955.13
2023-10-20T08:58:43.589Z,955.06
2023-10-20T08:59:45.315Z,955.13
2023-10-20T09:00:57.836Z,955.12
2023-10-20T09:01:48.803Z,955.1
2023-10-20T09:02:50.629Z,955.17
2023-10-20T09:03:52.290Z,955.13
2023-10-20T09:04:53.930Z,955.12
2023-10-20T09:05:55.752Z,955.09
2023-10-20T09:06:57.416Z,955.03
2023-10-20T09:07:59.147Z,955.07
2023-10-20T09:09:00.936Z,955.06
2023-10-20T09:10:02.777Z,955.04
2023-10-20T09:11:04.348Z,955
2023-10-20T09:12:06.064Z,955.02
2023-10-20T09:13:07.814Z,955.03
2023-10-20T09:14:09.772Z,955.01
2023-10-20T09:15:11.255Z,955.07
2023-10-20T09:16:13.099Z,955.08
2023-10-20T09:17:14.746Z,955
2023-10-20T09:18:16.627Z,955.07
2023-10-20T09:19:18.218Z,955.01
2023-10-20T09:20:19.955Z,955.02
2023-10-20T09:21:21.669Z,955.02
2023-10-20T09:22:23.422Z,955.05
2023-10-20T09:23:25.169Z,955.09
2023-10-20T09:24:26.863Z,955.07
2023-10-20T09:25:28.695Z,955.2
2023-10-20T09:26:30.377Z,955.19
2023-10-20T09:27:32.080Z,955.27
2023-10-20T09:28:35.138Z,955.33
2023-10-20T09:29:35.859Z,955.38
2023-10-20T09:30:39.325Z,955.43
2023-10-20T09:31:44.187Z,955.47
2023-10-20T09:32:46.015Z,955.53
2023-10-20T09:33:47.621Z,955.52
2023-10-20T09:34:49.985Z,955.52
2023-10-20T09:35:51.149Z,955.54
2023-10-20T09:36:52.835Z,955.58
2023-10-20T09:37:54.542Z,955.59
2023-10-20T09:38:56.335Z,955.59
2023-10-20T09:39:58.012Z,955.6
2023-10-20T09:40:59.735Z,955.61
2023-10-20T09:42:01.477Z,955.68
2023-10-20T09:43:15.137Z,955.73
2023-10-20T09:44:04.977Z,955.77
2023-10-20T09:45:06.714Z,955.82
2023-10-20T09:46:08.440Z,955.86
2023-10-20T09:47:11.084Z,955.78
2023-10-20T09:48:12.056Z,955.84
2023-10-20T09:49:13.600Z,955.88
2023-10-20T09:50:15.366Z,955.86
2023-10-20T09:51:17.082Z,955.85
2023-10-20T09:52:18.827Z,955.9
2023-10-20T09:53:20.608Z,955.94
2023-10-20T09:54:22.307Z,955.91
2023-10-20T09:55:24.040Z,955.95
2023-10-20T09:56:25.788Z,955.94
2023-10-20T09:57:27.508Z,955.92
2023-10-20T09:58:29.252Z,955.94
2023-10-20T09:59:30.966Z,955.93
2023-10-20T10:00:32.831Z,956.01
2023-10-20T10:01:34.460Z,956.07
2023-10-20T10:02:36.285Z,956.1
2023-10-20T10:03:37.971Z,956.07
2023-10-20T10:04:43.154Z,956.04
2023-10-20T10:05:46.589Z,956.04
2023-10-20T10:06:48.238Z,956.04
2023-10-20T10:07:49.976Z,956.04
2023-10-20T10:08:51.729Z,956.08
2023-10-20T10:09:53.532Z,956.09
2023-10-20T10:10:55.188Z,956.09
2023-10-20T10:11:57.001Z,956.05
2023-10-20T10:12:58.646Z,956.05
2023-10-20T10:14:00.373Z,956.02
2023-10-20T10:15:02.501Z,955.99
2023-10-20T10:16:04.038Z,955.91
2023-10-20T10:17:06.936Z,955.92
2023-10-20T10:18:07.434Z,955.95
2023-10-20T10:19:11.395Z,955.92
2023-10-20T10:20:10.762Z,955.9
2023-10-20T10:21:12.502Z,955.95
2023-10-20T10:22:14.269Z,955.96
2023-10-20T10:23:16.033Z,955.88
2023-10-20T10:24:17.968Z,955.86
2023-10-20T10:25:19.450Z,955.79
2023-10-20T10:26:21.234Z,955.81
2023-10-20T10:27:22.961Z,955.79
2023-10-20T10:28:24.682Z,955.79
2023-10-20T10:29:26.425Z,955.75
2023-10-20T10:30:28.087Z,955.75
2023-10-20T10:31:29.852Z,955.69
2023-10-20T10:32:31.824Z,955.77
2023-10-20T10:33:33.513Z,955.81
2023-10-20T10:34:35.188Z,955.8
2023-10-20T10:35:36.835Z,955.78
2023-10-20T10:36:38.485Z,955.77
2023-10-20T10:37:40.218Z,955.79
2023-10-20T10:38:42.077Z,955.83
2023-10-20T10:39:43.706Z,955.8
2023-10-20T10:40:46.706Z,955.79
2023-10-20T10:41:47.221Z,955.76
2023-10-20T10:42:50.119Z,955.74
2023-10-20T10:43:50.655Z,955.75
2023-10-20T10:44:52.445Z,955.69
2023-10-20T10:45:54.933Z,955.68
2023-10-20T10:46:55.954Z,955.71
2023-10-20T10:47:57.669Z,955.7
2023-10-20T10:48:59.304Z,955.72
2023-10-20T10:50:01.027Z,955.71
2023-10-20T10:51:02.850Z,955.73
2023-10-20T10:52:04.487Z,955.75
2023-10-20T10:53:06.237Z,955.73
2023-10-20T10:54:07.956Z,955.75
2023-10-20T10:55:09.644Z,955.73
2023-10-20T10:56:11.425Z,955.72
2023-10-20T10:57:13.140Z,955.71
2023-10-20T10:58:14.959Z,955.71
2023-10-20T10:59:16.633Z,955.67
2023-10-20T11:00:18.359Z,955.69
2023-10-20T11:01:20.299Z,955.64
2023-10-20T11:02:21.881Z,955.62
2023-10-20T11:03:25.835Z,955.57
2023-10-20T11:04:25.427Z,955.52
2023-10-20T11:05:27.076Z,955.54
2023-10-20T11:06:28.739Z,955.54
2023-10-20T11:07:30.496Z,955.53
2023-10-20T11:08:32.337Z,955.47
2023-10-20T11:09:33.973Z,955.46
2023-10-20T11:10:35.701Z,955.49
2023-10-20T11:11:37.485Z,955.52
2023-10-20T11:12:39.162Z,955.54
2023-10-20T11:13:40.921Z,955.57
2023-10-20T11:14:42.646Z,955.6
2023-10-20T11:15:44.533Z,955.58
2023-10-20T11:16:46.141Z,955.63
2023-10-20T11:17:47.945Z,955.61
2023-10-20T11:18:49.550Z,955.59
2023-10-20T11:19:51.287Z,955.62
2023-10-20T11:20:53.057Z,955.6
2023-10-20T11:21:54.755Z,955.54
2023-10-20T11:22:56.495Z,955.51
2023-10-20T11:23:58.296Z,955.51
2023-10-20T11:25:00.095Z,955.53
2023-10-20T11:26:01.699Z,955.46
2023-10-20T11:27:03.494Z,955.47
2023-10-20T11:28:05.157Z,955.41
2023-10-20T11:29:06.879Z,955.43
2023-10-20T11:30:08.725Z,955.5
2023-10-20T11:31:10.434Z,955.46
2023-10-20T11:32:14.621Z,955.44
2023-10-20T11:33:20.338Z,955.4
2023-10-20T11:34:20.719Z,955.39
2023-10-20T11:35:22.538Z,955.31
2023-10-20T11:36:24.150Z,955.38
2023-10-20T11:37:26.016Z,955.4
2023-10-20T11:38:33.856Z,955.44
2023-10-20T11:39:34.534Z,955.41
2023-10-20T11:40:36.243Z,955.38
2023-10-20T11:41:38.035Z,955.4
2023-10-20T11:42:39.758Z,955.31
2023-10-20T11:43:41.472Z,955.32
2023-10-20T11:44:43.204Z,955.37
2023-10-20T11:45:44.923Z,955.41
2023-10-20T11:46:46.676Z,955.4
2023-10-20T11:47:48.515Z,955.48
2023-10-20T11:48:50.092Z,955.48
2023-10-20T11:49:51.847Z,955.47
2023-10-20T11:50:53.687Z,955.42
2023-10-20T11:51:55.313Z,955.43
2023-10-20T11:52:57.055Z,955.43
2023-10-20T11:53:58.811Z,955.44
2023-10-20T11:55:00.527Z,955.45
2023-10-20T11:56:02.246Z,955.48
2023-10-20T11:57:03.985Z,955.46
2023-10-20T11:58:05.908Z,955.43
2023-10-20T11:59:07.445Z,955.38
2023-10-20T12:00:09.172Z,955.46
2023-10-20T12:01:10.905Z,955.39
2023-10-20T12:02:12.680Z,955.45
2023-10-20T12:03:14.488Z,955.49
2023-10-20T12:04:16.171Z,955.46
2023-10-20T12:05:17.925Z,955.44
2023-10-20T12:06:19.634Z,955.5
2023-10-20T12:07:21.295Z,955.54
2023-10-20T12:08:23.085Z,955.55
2023-10-20T12:09:24.777Z,955.57
2023-10-20T12:10:26.364Z,955.57
2023-10-20T12:11:28.112Z,955.58
2023-10-20T12:12:29.833Z,955.58
2023-10-20T12:13:31.557Z,955.58
2023-10-20T12:14:33.579Z,955.61
2023-10-20T12:15:35.044Z,955.65
2023-10-20T12:16:36.862Z,955.62
2023-10-20T12:17:38.591Z,955.63
2023-10-20T12:18:40.331Z,955.67
2023-10-20T12:19:41.966Z,955.68
2023-10-20T12:20:43.752Z,955.69
2023-10-20T12:21:45.431Z,955.7
2023-10-20T12:22:47.166Z,955.75
2023-10-20T12:23:48.942Z,955.73
2023-10-20T12:24:50.624Z,955.74
2023-10-20T12:25:52.355Z,955.77
2023-10-20T12:26:54.160Z,955.83
2023-10-20T12:27:55.813Z,955.84
2023-10-20T12:28:57.583Z,955.84
2023-10-20T12:29:59.382Z,955.88
2023-10-20T12:31:01.130Z,955.88
2023-10-20T12:32:02.942Z,955.94
2023-10-20T12:33:04.632Z,955.99
2023-10-20T12:34:06.225Z,956.02
2023-10-20T12:35:07.976Z,956.01
2023-10-20T12:36:09.729Z,956.05
2023-10-20T12:37:11.467Z,956.1
2023-10-20T12:38:13.166Z,956.08
2023-10-20T12:39:14.918Z,956.12
2023-10-20T12:40:16.639Z,956.02
2023-10-20T12:41:18.404Z,956.01
2023-10-20T12:42:20.121Z,956.01
2023-10-20T12:43:21.847Z,955.99
2023-10-20T12:44:23.578Z,956.04
2023-10-20T12:45:25.309Z,956.11
2023-10-20T12:46:28.401Z,956.09
2023-10-20T12:47:28.816Z,956.13
2023-10-20T12:48:30.732Z,956.17
2023-10-20T12:49:32.279Z,956.15
2023-10-20T12:50:34.020Z,956.2
2023-10-20T12:51:35.699Z,956.21
2023-10-20T12:52:37.479Z,956.09
2023-10-20T12:53:39.188Z,956.08
2023-10-20T12:54:40.895Z,956.08